PWSweather.com
Personal Weather Stations
Station Observations
01979
Ravne Pri CerknemSI 5282

Ravne Pri CerknemSI 5282

Lat: 46.1213916, Lon: 13.952774299999987

Elevation: 2244.094488

Station Type: Techo Line WS2307

www.vremenska.postaja.andre.si/

High Low Average
Temperature 43.3°F6.3°C 21.9°F-5.6°C 31.4°F-0.3°C
Dew Point 27.3°F-2.6°C 17.0°F-8.3°C 22.0°F-5.6°C
Winds 7.5 mph 12.1 kmh Calm Calm 1.0 mph NE1.6 kmh NE
Wind Gusts 14.1 mph22.7 kmh -- 2.0 mph3.2 kmh
Humidity 83% 46% 69%
Pressure 30.38 in1028.8 mb 30.21 in1023.0 mb -
Precipitation 0.00 in0.0 mm - -
Hour Temp Dew Point Humidity Winds Wind Gusts Pressure Precip Precip Rate Daily Precip Total
12:00 AM 24.1°F-4.4°C 18.5°F-7.5°C 79% 0.1 mph ESE0.2 kmh ESE 1.3 mph2.1 kmh 30.26 in1024.7 mb 0.00 in0.0 mm 0.00 in0.0 mm 0.00 in0.0 mm
12:10 AM 24.1°F-4.4°C 18.8°F-7.3°C 80% Calm Calm -- 30.26 in1024.7 mb 0.00 in0.0 mm 0.00 in0.0 mm 0.00 in0.0 mm
12:20 AM 24.1°F-4.4°C 18.8°F-7.3°C 80% 1.5 mph ESE2.4 kmh ESE 3.6 mph5.8 kmh 30.26 in1024.7 mb 0.00 in0.0 mm 0.00 in0.0 mm 0.00 in0.0 mm
12:30 AM 24.6°F-4.1°C 19.3°F-7.1°C 80% 2.6 mph SE4.2 kmh SE 5.1 mph8.2 kmh 30.26 in1024.7 mb 0.00 in0.0 mm 0.00 in0.0 mm 0.00 in0.0 mm
12:40 AM 24.1°F-4.4°C 18.8°F-7.3°C 80% 1.5 mph ESE2.4 kmh ESE 5.1 mph8.2 kmh 30.26 in1024.7 mb 0.00 in0.0 mm 0.00 in0.0 mm 0.00 in0.0 mm
12:50 AM 24.4°F-4.2°C 19.2°F-7.1°C 80% Calm Calm -- 30.26 in1024.7 mb 0.00 in0.0 mm 0.00 in0.0 mm 0.00 in0.0 mm
01:00 AM 24.4°F-4.2°C 18.9°F-7.3°C 79% Calm Calm -- 30.26 in1024.7 mb 0.00 in0.0 mm 0.00 in0.0 mm 0.00 in0.0 mm
01:10 AM 24.6°F-4.1°C 19.0°F-7.2°C 79% 2.5 mph SE4.0 kmh SE 3.4 mph5.5 kmh 30.26 in1024.7 mb 0.00 in0.0 mm 0.00 in0.0 mm 0.00 in0.0 mm
01:20 AM 24.4°F-4.2°C 18.9°F-7.3°C 79% 0.6 mph ESE1.0 kmh ESE 2.9 mph4.7 kmh 30.26 in1024.7 mb 0.00 in0.0 mm 0.00 in0.0 mm 0.00 in0.0 mm
01:30 AM 24.4°F-4.2°C 18.9°F-7.3°C 79% 1.1 mph ESE1.8 kmh ESE 2.0 mph3.2 kmh 30.26 in1024.7 mb 0.00 in0.0 mm 0.00 in0.0 mm 0.00 in0.0 mm
01:40 AM 23.9°F-4.5°C 18.3°F-7.6°C 79% 1.0 mph SE1.6 kmh SE 1.6 mph2.6 kmh 30.25 in1024.4 mb 0.00 in0.0 mm 0.00 in0.0 mm 0.00 in0.0 mm
01:50 AM 23.5°F-4.7°C 18.0°F-7.8°C 79% 0.5 mph ESE0.8 kmh ESE 2.2 mph3.5 kmh 30.25 in1024.4 mb 0.00 in0.0 mm 0.00 in0.0 mm 0.00 in0.0 mm
02:00 AM 24.1°F-4.4°C 18.5°F-7.5°C 79% 1.0 mph ESE1.6 kmh ESE 3.1 mph5.0 kmh 30.25 in1024.4 mb 0.00 in0.0 mm 0.00 in0.0 mm 0.00 in0.0 mm
02:10 AM 23.7°F-4.6°C 18.2°F-7.7°C 79% Calm Calm -- 30.25 in1024.4 mb 0.00 in0.0 mm 0.00 in0.0 mm 0.00 in0.0 mm
02:20 AM 23.9°F-4.5°C 18.3°F-7.6°C 79% Calm Calm -- 30.25 in1024.4 mb 0.00 in0.0 mm 0.00 in0.0 mm 0.00 in0.0 mm
02:30 AM 23.9°F-4.5°C 18.3°F-7.6°C 79% 0.3 mph ESE0.5 kmh ESE 1.3 mph2.1 kmh 30.25 in1024.4 mb 0.00 in0.0 mm 0.00 in0.0 mm 0.00 in0.0 mm
02:40 AM 23.9°F-4.5°C 18.3°F-7.6°C 79% Calm Calm -- 30.25 in1024.4 mb 0.00 in0.0 mm 0.00 in0.0 mm 0.00 in0.0 mm
02:50 AM 24.1°F-4.4°C 18.5°F-7.5°C 79% Calm Calm -- 30.24 in1024.0 mb 0.00 in0.0 mm 0.00 in0.0 mm 0.00 in0.0 mm
03:00 AM 23.9°F-4.5°C 18.3°F-7.6°C 79% Calm Calm -- 30.24 in1024.0 mb 0.00 in0.0 mm 0.00 in0.0 mm 0.00 in0.0 mm
03:02 AM 23.9°F-4.5°C 18.3°F-7.6°C 79% Calm Calm -- 30.24 in1024.0 mb 0.00 in0.0 mm 0.00 in0.0 mm 0.00 in0.0 mm
03:10 AM 23.0°F-5.0°C 17.7°F-7.9°C 80% Calm Calm -- 30.24 in1024.0 mb 0.00 in0.0 mm 0.00 in0.0 mm 0.00 in0.0 mm
03:20 AM 22.8°F-5.1°C 17.6°F-8.0°C 80% 0.2 mph E0.3 kmh E 1.1 mph1.8 kmh 30.23 in1023.7 mb 0.00 in0.0 mm 0.00 in0.0 mm 0.00 in0.0 mm
03:30 AM 23.4°F-4.8°C 18.1°F-7.7°C 80% 1.0 mph ESE1.6 kmh ESE 1.6 mph2.6 kmh 30.23 in1023.7 mb 0.00 in0.0 mm 0.00 in0.0 mm 0.00 in0.0 mm
03:40 AM 22.8°F-5.1°C 17.6°F-8.0°C 80% 0.9 mph ESE1.4 kmh ESE 3.1 mph5.0 kmh 30.23 in1023.7 mb 0.00 in0.0 mm 0.00 in0.0 mm 0.00 in0.0 mm
03:50 AM 22.8°F-5.1°C 17.6°F-8.0°C 80% 1.7 mph E2.7 kmh E 2.9 mph4.7 kmh 30.23 in1023.7 mb 0.00 in0.0 mm 0.00 in0.0 mm 0.00 in0.0 mm
04:00 AM 22.8°F-5.1°C 17.6°F-8.0°C 80% 0.3 mph E0.5 kmh E 2.9 mph4.7 kmh 30.23 in1023.7 mb 0.00 in0.0 mm 0.00 in0.0 mm 0.00 in0.0 mm
04:10 AM 21.9°F-5.6°C 17.0°F-8.3°C 81% Calm Calm -- 30.23 in1023.7 mb 0.00 in0.0 mm 0.00 in0.0 mm 0.00 in0.0 mm
04:20 AM 22.1°F-5.5°C 17.7°F-7.9°C 83% Calm Calm -- 30.23 in1023.7 mb 0.00 in0.0 mm 0.00 in0.0 mm 0.00 in0.0 mm
04:30 AM 22.1°F-5.5°C 17.7°F-7.9°C 83% Calm Calm -- 30.23 in1023.7 mb 0.00 in0.0 mm 0.00 in0.0 mm 0.00 in0.0 mm
04:40 AM 22.3°F-5.4°C 17.9°F-7.8°C 83% Calm Calm -- 30.23 in1023.7 mb 0.00 in0.0 mm 0.00 in0.0 mm 0.00 in0.0 mm
04:50 AM 22.6°F-5.2°C 18.3°F-7.6°C 83% Calm Calm -- 30.23 in1023.7 mb 0.00 in0.0 mm 0.00 in0.0 mm 0.00 in0.0 mm
05:00 AM 22.6°F-5.2°C 18.3°F-7.6°C 83% Calm Calm -- 30.23 in1023.7 mb 0.00 in0.0 mm 0.00 in0.0 mm 0.00 in0.0 mm
05:10 AM 22.6°F-5.2°C 18.3°F-7.6°C 83% Calm Calm -- 30.22 in1023.4 mb 0.00 in0.0 mm 0.00 in0.0 mm 0.00 in0.0 mm
05:20 AM 22.5°F-5.3°C 17.8°F-7.9°C 82% 0.3 mph E0.5 kmh E 1.3 mph2.1 kmh 30.22 in1023.4 mb 0.00 in0.0 mm 0.00 in0.0 mm 0.00 in0.0 mm
05:30 AM 22.8°F-5.1°C 18.1°F-7.7°C 82% 0.4 mph ESE0.6 kmh ESE 3.1 mph5.0 kmh 30.22 in1023.4 mb 0.00 in0.0 mm 0.00 in0.0 mm 0.00 in0.0 mm
05:40 AM 23.0°F-5.0°C 18.3°F-7.6°C 82% 3.6 mph ESE5.8 kmh ESE 4.5 mph7.2 kmh 30.21 in1023.0 mb 0.00 in0.0 mm 0.00 in0.0 mm 0.00 in0.0 mm
05:50 AM 22.8°F-5.1°C 18.1°F-7.7°C 82% 4.0 mph ESE6.4 kmh ESE 4.5 mph7.2 kmh 30.21 in1023.0 mb 0.00 in0.0 mm 0.00 in0.0 mm 0.00 in0.0 mm
06:00 AM 22.6°F-5.2°C 18.0°F-7.8°C 82% 0.4 mph ESE0.6 kmh ESE 2.7 mph4.3 kmh 30.21 in1023.0 mb 0.00 in0.0 mm 0.00 in0.0 mm 0.00 in0.0 mm
06:10 AM 22.8°F-5.1°C 18.1°F-7.7°C 82% Calm Calm -- 30.21 in1023.0 mb 0.00 in0.0 mm 0.00 in0.0 mm 0.00 in0.0 mm
06:20 AM 22.5°F-5.3°C 17.8°F-7.9°C 82% Calm Calm -- 30.22 in1023.4 mb 0.00 in0.0 mm 0.00 in0.0 mm 0.00 in0.0 mm
06:30 AM 22.6°F-5.2°C 18.0°F-7.8°C 82% Calm Calm -- 30.21 in1023.0 mb 0.00 in0.0 mm 0.00 in0.0 mm 0.00 in0.0 mm
06:40 AM 22.8°F-5.1°C 18.1°F-7.7°C 82% Calm Calm -- 30.22 in1023.4 mb 0.00 in0.0 mm 0.00 in0.0 mm 0.00 in0.0 mm
06:50 AM 23.0°F-5.0°C 18.0°F-7.8°C 81% Calm Calm -- 30.22 in1023.4 mb 0.00 in0.0 mm 0.00 in0.0 mm 0.00 in0.0 mm
07:00 AM 22.6°F-5.2°C 17.7°F-7.9°C 81% Calm Calm -- 30.22 in1023.4 mb 0.00 in0.0 mm 0.00 in0.0 mm 0.00 in0.0 mm
07:10 AM 22.8°F-5.1°C 17.9°F-7.8°C 81% Calm Calm -- 30.22 in1023.4 mb 0.00 in0.0 mm 0.00 in0.0 mm 0.00 in0.0 mm
07:20 AM 22.6°F-5.2°C 17.4°F-8.1°C 80% Calm Calm -- 30.22 in1023.4 mb 0.00 in0.0 mm 0.00 in0.0 mm 0.00 in0.0 mm
07:30 AM 22.8°F-5.1°C 17.9°F-7.8°C 81% Calm Calm -- 30.23 in1023.7 mb 0.00 in0.0 mm 0.00 in0.0 mm 0.00 in0.0 mm
07:40 AM 23.4°F-4.8°C 18.4°F-7.6°C 81% 0.7 mph E1.1 kmh E 1.8 mph2.9 kmh 30.22 in1023.4 mb 0.00 in0.0 mm 0.00 in0.0 mm 0.00 in0.0 mm
07:50 AM 23.5°F-4.7°C 18.6°F-7.4°C 81% Calm Calm -- 30.22 in1023.4 mb 0.00 in0.0 mm 0.00 in0.0 mm 0.00 in0.0 mm
08:00 AM 24.1°F-4.4°C 18.8°F-7.3°C 80% Calm Calm -- 30.22 in1023.4 mb 0.00 in0.0 mm 0.00 in0.0 mm 0.00 in0.0 mm
08:10 AM 24.4°F-4.2°C 18.9°F-7.3°C 79% Calm Calm -- 30.22 in1023.4 mb 0.00 in0.0 mm 0.00 in0.0 mm 0.00 in0.0 mm
08:20 AM 24.4°F-4.2°C 18.9°F-7.3°C 79% Calm Calm -- 30.22 in1023.4 mb 0.00 in0.0 mm 0.00 in0.0 mm 0.00 in0.0 mm
08:30 AM 24.1°F-4.4°C 18.5°F-7.5°C 79% Calm Calm -- 30.23 in1023.7 mb 0.00 in0.0 mm 0.00 in0.0 mm 0.00 in0.0 mm
08:40 AM 25.5°F-3.6°C 19.6°F-6.9°C 78% Calm Calm -- 30.23 in1023.7 mb 0.00 in0.0 mm 0.00 in0.0 mm 0.00 in0.0 mm
08:50 AM 27.5°F-2.5°C 20.3°F-6.5°C 74% Calm Calm -- 30.23 in1023.7 mb 0.00 in0.0 mm 0.00 in0.0 mm 0.00 in0.0 mm
09:00 AM 29.5°F-1.4°C 21.2°F-6.0°C 71% Calm Calm -- 30.23 in1023.7 mb 0.00 in0.0 mm 0.00 in0.0 mm 0.00 in0.0 mm
09:10 AM 29.8°F-1.2°C 21.2°F-6.0°C 70% Calm Calm -- 30.24 in1024.0 mb 0.00 in0.0 mm 0.00 in0.0 mm 0.00 in0.0 mm
09:20 AM 30.0°F-1.1°C 21.1°F-6.1°C 69% Calm Calm -- 30.24 in1024.0 mb 0.00 in0.0 mm 0.00 in0.0 mm 0.00 in0.0 mm
09:30 AM 29.7°F-1.3°C 22.4°F-5.3°C 74% Calm Calm -- 30.24 in1024.0 mb 0.00 in0.0 mm 0.00 in0.0 mm 0.00 in0.0 mm
09:40 AM 30.7°F-0.7°C 23.1°F-4.9°C 73% Calm Calm -- 30.24 in1024.0 mb 0.00 in0.0 mm 0.00 in0.0 mm 0.00 in0.0 mm
09:50 AM 32.4°F0.2°C 24.0°F-4.4°C 71% Calm Calm -- 30.24 in1024.0 mb 0.00 in0.0 mm 0.00 in0.0 mm 0.00 in0.0 mm
10:00 AM 32.2°F0.1°C 23.8°F-4.6°C 71% Calm Calm -- 30.23 in1023.7 mb 0.00 in0.0 mm 0.00 in0.0 mm 0.00 in0.0 mm
10:10 AM 31.1°F-0.5°C 22.5°F-5.3°C 70% Calm Calm -- 30.24 in1024.0 mb 0.00 in0.0 mm 0.00 in0.0 mm 0.00 in0.0 mm
10:20 AM 30.7°F-0.7°C 21.8°F-5.7°C 69% Calm Calm -- 30.23 in1023.7 mb 0.00 in0.0 mm 0.00 in0.0 mm 0.00 in0.0 mm
10:30 AM 31.6°F-0.2°C 22.6°F-5.2°C 69% Calm Calm -- 30.24 in1024.0 mb 0.00 in0.0 mm 0.00 in0.0 mm 0.00 in0.0 mm
10:40 AM 31.3°F-0.4°C 23.0°F-5.0°C 71% Calm Calm -- 30.25 in1024.4 mb 0.00 in0.0 mm 0.00 in0.0 mm 0.00 in0.0 mm
10:50 AM 31.3°F-0.4°C 23.0°F-5.0°C 71% Calm Calm -- 30.25 in1024.4 mb 0.00 in0.0 mm 0.00 in0.0 mm 0.00 in0.0 mm
11:00 AM 31.8°F-0.1°C 21.7°F-5.7°C 66% Calm Calm -- 30.25 in1024.4 mb 0.00 in0.0 mm 0.00 in0.0 mm 0.00 in0.0 mm
11:10 AM 32.5°F0.3°C 21.3°F-5.9°C 63% Calm Calm -- 30.25 in1024.4 mb 0.00 in0.0 mm 0.00 in0.0 mm 0.00 in0.0 mm
11:20 AM 33.8°F1.0°C 21.0°F-6.1°C 59% Calm Calm -- 30.25 in1024.4 mb 0.00 in0.0 mm 0.00 in0.0 mm 0.00 in0.0 mm
11:30 AM 34.5°F1.4°C 21.2°F-6.0°C 58% Calm Calm -- 30.25 in1024.4 mb 0.00 in0.0 mm 0.00 in0.0 mm 0.00 in0.0 mm
11:40 AM 35.2°F1.8°C 21.5°F-5.8°C 57% Calm Calm -- 30.25 in1024.4 mb 0.00 in0.0 mm 0.00 in0.0 mm 0.00 in0.0 mm
11:50 AM 34.9°F1.6°C 21.2°F-6.0°C 57% Calm Calm -- 30.25 in1024.4 mb 0.00 in0.0 mm 0.00 in0.0 mm 0.00 in0.0 mm
12:00 PM 36.1°F2.3°C 21.5°F-5.8°C 55% Calm Calm -- 30.25 in1024.4 mb 0.00 in0.0 mm 0.00 in0.0 mm 0.00 in0.0 mm
12:10 PM 36.1°F2.3°C 21.5°F-5.8°C 55% Calm Calm -- 30.25 in1024.4 mb 0.00 in0.0 mm 0.00 in0.0 mm 0.00 in0.0 mm
12:20 PM 36.1°F2.3°C 21.5°F-5.8°C 55% Calm Calm -- 30.25 in1024.4 mb 0.00 in0.0 mm 0.00 in0.0 mm 0.00 in0.0 mm
12:30 PM 36.5°F2.5°C 22.3°F-5.4°C 56% Calm Calm -- 30.25 in1024.4 mb 0.00 in0.0 mm 0.00 in0.0 mm 0.00 in0.0 mm
12:40 PM 38.1°F3.4°C 23.4°F-4.8°C 55% Calm Calm -- 30.25 in1024.4 mb 0.00 in0.0 mm 0.00 in0.0 mm 0.00 in0.0 mm
12:50 PM 37.2°F2.9°C 22.9°F-5.1°C 56% Calm Calm -- 30.23 in1023.7 mb 0.00 in0.0 mm 0.00 in0.0 mm 0.00 in0.0 mm
01:00 PM 37.9°F3.3°C 23.2°F-4.9°C 55% Calm Calm -- 30.23 in1023.7 mb 0.00 in0.0 mm 0.00 in0.0 mm 0.00 in0.0 mm
01:10 PM 39.4°F4.1°C 23.7°F-4.6°C 53% Calm Calm -- 30.24 in1024.0 mb 0.00 in0.0 mm 0.00 in0.0 mm 0.00 in0.0 mm
01:20 PM 39.4°F4.1°C 23.7°F-4.6°C 53% Calm Calm -- 30.23 in1023.7 mb 0.00 in0.0 mm 0.00 in0.0 mm 0.00 in0.0 mm
01:30 PM 41.9°F5.5°C 25.1°F-3.8°C 51% Calm Calm -- 30.23 in1023.7 mb 0.00 in0.0 mm 0.00 in0.0 mm 0.00 in0.0 mm
01:40 PM 41.7°F5.4°C 24.4°F-4.2°C 50% Calm Calm -- 30.23 in1023.7 mb 0.00 in0.0 mm 0.00 in0.0 mm 0.00 in0.0 mm
01:50 PM 42.6°F5.9°C 25.7°F-3.5°C 51% Calm Calm -- 30.23 in1023.7 mb 0.00 in0.0 mm 0.00 in0.0 mm 0.00 in0.0 mm
02:00 PM 42.1°F5.6°C 26.2°F-3.2°C 53% Calm Calm -- 30.23 in1023.7 mb 0.00 in0.0 mm 0.00 in0.0 mm 0.00 in0.0 mm
02:10 PM 41.5°F5.3°C 26.1°F-3.3°C 54% Calm Calm -- 30.23 in1023.7 mb 0.00 in0.0 mm 0.00 in0.0 mm 0.00 in0.0 mm
02:20 PM 41.2°F5.1°C 25.3°F-3.7°C 53% Calm Calm -- 30.23 in1023.7 mb 0.00 in0.0 mm 0.00 in0.0 mm 0.00 in0.0 mm
02:30 PM 41.7°F5.4°C 26.3°F-3.2°C 54% Calm Calm -- 30.23 in1023.7 mb 0.00 in0.0 mm 0.00 in0.0 mm 0.00 in0.0 mm
02:40 PM 41.2°F5.1°C 24.9°F-3.9°C 52% 1.9 mph ESE3.1 kmh ESE 4.0 mph6.4 kmh 30.23 in1023.7 mb 0.00 in0.0 mm 0.00 in0.0 mm 0.00 in0.0 mm
02:50 PM 41.2°F5.1°C 24.4°F-4.2°C 51% 0.5 mph SE0.8 kmh SE 1.3 mph2.1 kmh 30.23 in1023.7 mb 0.00 in0.0 mm 0.00 in0.0 mm 0.00 in0.0 mm
03:00 PM 42.3°F5.7°C 24.4°F-4.2°C 49% Calm Calm -- 30.23 in1023.7 mb 0.00 in0.0 mm 0.00 in0.0 mm 0.00 in0.0 mm
03:10 PM 43.3°F6.3°C 24.9°F-3.9°C 48% Calm Calm -- 30.22 in1023.4 mb 0.00 in0.0 mm 0.00 in0.0 mm 0.00 in0.0 mm
03:20 PM 43.3°F6.3°C 25.9°F-3.4°C 50% Calm Calm -- 30.24 in1024.0 mb 0.00 in0.0 mm 0.00 in0.0 mm 0.00 in0.0 mm
03:30 PM 42.1°F5.6°C 23.3°F-4.8°C 47% Calm Calm -- 30.25 in1024.4 mb 0.00 in0.0 mm 0.00 in0.0 mm 0.00 in0.0 mm
03:40 PM 42.8°F6.0°C 23.4°F-4.8°C 46% Calm Calm -- 30.25 in1024.4 mb 0.00 in0.0 mm 0.00 in0.0 mm 0.00 in0.0 mm
03:50 PM 42.6°F5.9°C 24.3°F-4.3°C 48% Calm Calm -- 30.25 in1024.4 mb 0.00 in0.0 mm 0.00 in0.0 mm 0.00 in0.0 mm
04:00 PM 42.4°F5.8°C 23.6°F-4.7°C 47% 0.6 mph SSE1.0 kmh SSE 2.0 mph3.2 kmh 30.25 in1024.4 mb 0.00 in0.0 mm 0.00 in0.0 mm 0.00 in0.0 mm
04:10 PM 42.1°F5.6°C 22.8°F-5.1°C 46% 5.1 mph E8.2 kmh E 7.8 mph12.6 kmh 30.26 in1024.7 mb 0.00 in0.0 mm 0.00 in0.0 mm 0.00 in0.0 mm
04:20 PM 41.9°F5.5°C 23.1°F-4.9°C 47% 3.6 mph E5.8 kmh E 5.6 mph9.0 kmh 30.26 in1024.7 mb 0.00 in0.0 mm 0.00 in0.0 mm 0.00 in0.0 mm
04:30 PM 42.3°F5.7°C 23.9°F-4.5°C 48% 1.6 mph E2.6 kmh E 3.1 mph5.0 kmh 30.26 in1024.7 mb 0.00 in0.0 mm 0.00 in0.0 mm 0.00 in0.0 mm
04:40 PM 41.5°F5.3°C 23.8°F-4.6°C 49% 0.4 mph E0.6 kmh E 3.6 mph5.8 kmh 30.27 in1025.1 mb 0.00 in0.0 mm 0.00 in0.0 mm 0.00 in0.0 mm
04:50 PM 40.3°F4.6°C 23.6°F-4.7°C 51% 2.8 mph ESE4.5 kmh ESE 5.8 mph9.3 kmh 30.27 in1025.1 mb 0.00 in0.0 mm 0.00 in0.0 mm 0.00 in0.0 mm
05:00 PM 39.0°F3.9°C 23.8°F-4.6°C 54% 2.7 mph E4.3 kmh E 6.3 mph10.1 kmh 30.27 in1025.1 mb 0.00 in0.0 mm 0.00 in0.0 mm 0.00 in0.0 mm
05:10 PM 38.8°F3.8°C 24.5°F-4.2°C 56% 2.0 mph ESE3.2 kmh ESE 4.9 mph7.9 kmh 30.27 in1025.1 mb 0.00 in0.0 mm 0.00 in0.0 mm 0.00 in0.0 mm
05:20 PM 38.1°F3.4°C 24.2°F-4.3°C 57% 1.7 mph SE2.7 kmh SE 8.5 mph13.7 kmh 30.28 in1025.4 mb 0.00 in0.0 mm 0.00 in0.0 mm 0.00 in0.0 mm
05:30 PM 37.6°F3.1°C 24.1°F-4.4°C 58% 1.9 mph ESE3.1 kmh ESE 8.5 mph13.7 kmh 30.28 in1025.4 mb 0.00 in0.0 mm 0.00 in0.0 mm 0.00 in0.0 mm
05:40 PM 36.9°F2.7°C 23.9°F-4.5°C 59% 1.0 mph E1.6 kmh E 4.5 mph7.2 kmh 30.28 in1025.4 mb 0.00 in0.0 mm 0.00 in0.0 mm 0.00 in0.0 mm
05:50 PM 36.7°F2.6°C 23.7°F-4.6°C 59% Calm Calm -- 30.29 in1025.7 mb 0.00 in0.0 mm 0.00 in0.0 mm 0.00 in0.0 mm
06:00 PM 36.3°F2.4°C 23.3°F-4.8°C 59% 4.2 mph ENE6.8 kmh ENE 7.2 mph11.6 kmh 30.29 in1025.7 mb 0.00 in0.0 mm 0.00 in0.0 mm 0.00 in0.0 mm
06:10 PM 36.1°F2.3°C 23.2°F-4.9°C 59% 5.9 mph E9.5 kmh E 7.6 mph12.2 kmh 30.29 in1025.7 mb 0.00 in0.0 mm 0.00 in0.0 mm 0.00 in0.0 mm
06:20 PM 36.0°F2.2°C 22.6°F-5.2°C 58% 1.2 mph E1.9 kmh E 7.6 mph12.2 kmh 30.30 in1026.1 mb 0.00 in0.0 mm 0.00 in0.0 mm 0.00 in0.0 mm
06:30 PM 35.4°F1.9°C 23.7°F-4.6°C 62% Calm Calm -- 30.30 in1026.1 mb 0.00 in0.0 mm 0.00 in0.0 mm 0.00 in0.0 mm
06:40 PM 35.4°F1.9°C 22.1°F-5.5°C 58% 1.8 mph NNW2.9 kmh NNW 4.9 mph7.9 kmh 30.31 in1026.4 mb 0.00 in0.0 mm 0.00 in0.0 mm 0.00 in0.0 mm
06:50 PM 35.8°F2.1°C 22.8°F-5.1°C 59% 2.5 mph SE4.0 kmh SE 8.3 mph13.4 kmh 30.31 in1026.4 mb 0.00 in0.0 mm 0.00 in0.0 mm 0.00 in0.0 mm
07:00 PM 35.6°F2.0°C 23.5°F-4.7°C 61% 5.7 mph SE9.2 kmh SE 8.9 mph14.3 kmh 30.31 in1026.4 mb 0.00 in0.0 mm 0.00 in0.0 mm 0.00 in0.0 mm
07:10 PM 35.4°F1.9°C 23.7°F-4.6°C 62% 1.2 mph E1.9 kmh E 4.7 mph7.6 kmh 30.32 in1026.8 mb 0.00 in0.0 mm 0.00 in0.0 mm 0.00 in0.0 mm
07:20 PM 35.4°F1.9°C 23.7°F-4.6°C 62% 1.5 mph E2.4 kmh E 4.5 mph7.2 kmh 30.32 in1026.8 mb 0.00 in0.0 mm 0.00 in0.0 mm 0.00 in0.0 mm
07:30 PM 35.8°F2.1°C 24.4°F-4.2°C 63% 7.5 mph ESE12.1 kmh ESE 11.4 mph18.3 kmh 30.32 in1026.8 mb 0.00 in0.0 mm 0.00 in0.0 mm 0.00 in0.0 mm
07:40 PM 35.8°F2.1°C 24.8°F-4.0°C 64% 6.2 mph SE10.0 kmh SE 14.1 mph22.7 kmh 30.32 in1026.8 mb 0.00 in0.0 mm 0.00 in0.0 mm 0.00 in0.0 mm
07:50 PM 35.4°F1.9°C 24.8°F-4.0°C 65% 6.0 mph E9.7 kmh E 8.3 mph13.4 kmh 30.33 in1027.1 mb 0.00 in0.0 mm 0.00 in0.0 mm 0.00 in0.0 mm
08:00 PM 35.2°F1.8°C 25.0°F-3.9°C 66% 3.9 mph ESE6.3 kmh ESE 5.4 mph8.7 kmh 30.33 in1027.1 mb 0.00 in0.0 mm 0.00 in0.0 mm 0.00 in0.0 mm
08:10 PM 35.2°F1.8°C 25.4°F-3.7°C 67% 5.2 mph ESE8.4 kmh ESE 7.8 mph12.6 kmh 30.33 in1027.1 mb 0.00 in0.0 mm 0.00 in0.0 mm 0.00 in0.0 mm
08:20 PM 35.2°F1.8°C 25.7°F-3.5°C 68% 5.6 mph SE9.0 kmh SE 8.7 mph14.0 kmh 30.33 in1027.1 mb 0.00 in0.0 mm 0.00 in0.0 mm 0.00 in0.0 mm
08:30 PM 35.2°F1.8°C 25.7°F-3.5°C 68% 4.0 mph SE6.4 kmh SE 6.5 mph10.5 kmh 30.34 in1027.4 mb 0.00 in0.0 mm 0.00 in0.0 mm 0.00 in0.0 mm
08:40 PM 35.1°F1.7°C 25.9°F-3.4°C 69% 7.4 mph ESE11.9 kmh ESE 12.1 mph19.5 kmh 30.34 in1027.4 mb 0.00 in0.0 mm 0.00 in0.0 mm 0.00 in0.0 mm
08:50 PM 35.1°F1.7°C 26.3°F-3.2°C 70% 7.3 mph ESE11.7 kmh ESE 10.7 mph17.2 kmh 30.34 in1027.4 mb 0.00 in0.0 mm 0.00 in0.0 mm 0.00 in0.0 mm
09:00 PM 35.1°F1.7°C 26.3°F-3.2°C 70% 6.0 mph E9.7 kmh E 8.3 mph13.4 kmh 30.34 in1027.4 mb 0.00 in0.0 mm 0.00 in0.0 mm 0.00 in0.0 mm
09:10 PM 34.7°F1.5°C 25.9°F-3.4°C 70% 5.7 mph ESE9.2 kmh ESE 8.9 mph14.3 kmh 30.34 in1027.4 mb 0.00 in0.0 mm 0.00 in0.0 mm 0.00 in0.0 mm
09:20 PM 34.7°F1.5°C 26.3°F-3.2°C 71% 3.4 mph SE5.5 kmh SE 8.9 mph14.3 kmh 30.34 in1027.4 mb 0.00 in0.0 mm 0.00 in0.0 mm 0.00 in0.0 mm
09:30 PM 34.3°F1.3°C 25.9°F-3.4°C 71% 2.6 mph E4.2 kmh E 7.4 mph11.9 kmh 30.34 in1027.4 mb 0.00 in0.0 mm 0.00 in0.0 mm 0.00 in0.0 mm
09:40 PM 34.3°F1.3°C 26.2°F-3.2°C 72% 2.5 mph ESE4.0 kmh ESE 8.3 mph13.4 kmh 30.35 in1027.8 mb 0.00 in0.0 mm 0.00 in0.0 mm 0.00 in0.0 mm
09:50 PM 34.3°F1.3°C 26.2°F-3.2°C 72% 1.8 mph NE2.9 kmh NE 5.8 mph9.3 kmh 30.35 in1027.8 mb 0.00 in0.0 mm 0.00 in0.0 mm 0.00 in0.0 mm
10:00 PM 34.0°F1.1°C 26.6°F-3.0°C 74% 0.6 mph WSW1.0 kmh WSW 3.1 mph5.0 kmh 30.35 in1027.8 mb 0.00 in0.0 mm 0.00 in0.0 mm 0.00 in0.0 mm
10:10 PM 34.0°F1.1°C 26.9°F-2.8°C 75% 0.5 mph NE0.8 kmh NE 2.5 mph4.0 kmh 30.35 in1027.8 mb 0.00 in0.0 mm 0.00 in0.0 mm 0.00 in0.0 mm
10:20 PM 33.6°F0.9°C 26.5°F-3.1°C 75% 1.4 mph S2.3 kmh S 6.5 mph10.5 kmh 30.35 in1027.8 mb 0.00 in0.0 mm 0.00 in0.0 mm 0.00 in0.0 mm
10:30 PM 33.4°F0.8°C 27.0°F-2.8°C 77% 0.6 mph S1.0 kmh S 3.1 mph5.0 kmh 30.35 in1027.8 mb 0.00 in0.0 mm 0.00 in0.0 mm 0.00 in0.0 mm
10:40 PM 33.6°F0.9°C 27.2°F-2.7°C 77% 2.0 mph ENE3.2 kmh ENE 9.6 mph15.4 kmh 30.36 in1028.1 mb 0.00 in0.0 mm 0.00 in0.0 mm 0.00 in0.0 mm
10:50 PM 33.6°F0.9°C 27.2°F-2.7°C 77% Calm Calm -- 30.36 in1028.1 mb 0.00 in0.0 mm 0.00 in0.0 mm 0.00 in0.0 mm
11:00 PM 33.6°F0.9°C 27.2°F-2.7°C 77% Calm Calm -- 30.37 in1028.4 mb 0.00 in0.0 mm 0.00 in0.0 mm 0.00 in0.0 mm
11:10 PM 33.4°F0.8°C 27.3°F-2.6°C 78% 0.7 mph ESE1.1 kmh ESE 3.4 mph5.5 kmh 30.37 in1028.4 mb 0.00 in0.0 mm 0.00 in0.0 mm 0.00 in0.0 mm
11:20 PM 33.3°F0.7°C 27.1°F-2.7°C 78% 0.8 mph ENE1.3 kmh ENE 3.6 mph5.8 kmh 30.37 in1028.4 mb 0.00 in0.0 mm 0.00 in0.0 mm 0.00 in0.0 mm
11:30 PM 32.9°F0.5°C 26.8°F-2.9°C 78% 0.6 mph ESE1.0 kmh ESE 3.6 mph5.8 kmh 30.38 in1028.8 mb 0.00 in0.0 mm 0.00 in0.0 mm 0.00 in0.0 mm
11:40 PM 32.5°F0.3°C 26.7°F-2.9°C 79% 1.7 mph SSE2.7 kmh SSE 5.8 mph9.3 kmh 30.37 in1028.4 mb 0.00 in0.0 mm 0.00 in0.0 mm 0.00 in0.0 mm
11:50 PM 32.7°F0.4°C 26.9°F-2.8°C 79% Calm Calm -- 30.38 in1028.8 mb 0.00 in0.0 mm 0.00 in0.0 mm 0.00 in0.0 mm